createdAt,value
2019-04-10T00:00:26.554Z,3.17
2019-04-10T00:02:53.571Z,3.12
2019-04-10T00:05:20.041Z,3.07
2019-04-10T00:07:46.341Z,3.01
2019-04-10T00:10:12.511Z,2.96
2019-04-10T00:12:40.186Z,2.93
2019-04-10T00:15:07.226Z,2.90
2019-04-10T00:17:34.047Z,2.88
2019-04-10T00:20:00.297Z,2.87
2019-04-10T00:22:26.422Z,2.87
2019-04-10T00:24:52.737Z,2.88
2019-04-10T00:27:18.947Z,2.87
2019-04-10T00:29:45.152Z,2.82
2019-04-10T00:32:11.927Z,2.75
2019-04-10T00:34:38.216Z,2.75
2019-04-10T00:37:04.303Z,2.79
2019-04-10T00:39:30.670Z,2.82
2019-04-10T00:41:57.016Z,2.87
2019-04-10T00:44:23.785Z,2.94
2019-04-10T00:46:50.667Z,3.00
2019-04-10T00:49:17.638Z,3.00
2019-04-10T00:51:43.853Z,2.92
2019-04-10T00:54:09.963Z,2.81
2019-04-10T00:56:36.859Z,2.73
2019-04-10T00:59:03.821Z,2.65
2019-04-10T01:01:30.014Z,2.61
2019-04-10T01:03:56.442Z,2.54
2019-04-10T01:06:22.651Z,2.50
2019-04-10T01:08:48.911Z,2.43
2019-04-10T01:11:15.273Z,2.39
2019-04-10T01:13:41.494Z,2.37
2019-04-10T01:16:07.656Z,2.35
2019-04-10T01:18:33.851Z,2.30
2019-04-10T01:21:00.115Z,2.31
2019-04-10T01:23:26.441Z,2.30
2019-04-10T01:25:52.709Z,2.33
2019-04-10T01:28:18.842Z,2.31
2019-04-10T01:30:44.964Z,2.30
2019-04-10T01:33:11.212Z,2.23
2019-04-10T01:35:38.292Z,2.22
2019-04-10T01:38:06.100Z,2.19
2019-04-10T01:40:32.520Z,2.14
2019-04-10T01:43:07.156Z,2.07
2019-04-10T01:45:27.677Z,2.03
2019-04-10T01:47:53.912Z,2.00
2019-04-10T01:50:20.172Z,1.97
2019-04-10T01:52:47.142Z,1.90
2019-04-10T01:55:22.325Z,1.85
2019-04-10T01:57:41.444Z,1.78
2019-04-10T02:00:09.676Z,1.73
2019-04-10T02:02:47.563Z,1.69
2019-04-10T02:05:14.486Z,1.68
2019-04-10T02:07:40.835Z,1.65
2019-04-10T02:10:07.925Z,1.62
2019-04-10T02:12:34.668Z,1.55
2019-04-10T02:15:01.082Z,1.57
2019-04-10T02:17:27.199Z,1.58
2019-04-10T02:19:53.328Z,1.55
2019-04-10T02:22:20.409Z,1.49
2019-04-10T02:24:47.275Z,1.44
2019-04-10T02:27:14.049Z,1.40
2019-04-10T02:29:40.190Z,1.34
2019-04-10T02:32:06.280Z,1.30
2019-04-10T02:34:32.761Z,1.27
2019-04-10T02:37:00.481Z,1.22
2019-04-10T02:39:34.187Z,1.15
2019-04-10T02:41:56.193Z,1.11
2019-04-10T02:44:22.915Z,1.10
2019-04-10T02:46:49.761Z,1.04
2019-04-10T02:49:18.478Z,1.00
2019-04-10T02:51:45.355Z,0.99
2019-04-10T02:54:13.574Z,1.03
2019-04-10T02:56:41.093Z,1.04
2019-04-10T02:59:07.842Z,1.06
2019-04-10T03:01:35.594Z,1.05
2019-04-10T03:04:03.313Z,1.05
2019-04-10T03:06:31.001Z,1.05
2019-04-10T03:09:10.819Z,1.03
2019-04-10T03:11:27.817Z,0.98
2019-04-10T03:13:55.599Z,0.97
2019-04-10T03:16:21.825Z,0.96
2019-04-10T03:18:47.947Z,0.93
2019-04-10T03:21:15.247Z,0.89
2019-04-10T03:23:41.963Z,0.88
2019-04-10T03:26:08.149Z,0.82
2019-04-10T03:28:35.423Z,0.80
2019-04-10T03:31:03.512Z,0.71
2019-04-10T03:33:40.608Z,0.67
2019-04-10T03:36:05.402Z,0.66
2019-04-10T03:38:32.605Z,0.63
2019-04-10T03:40:59.727Z,0.64
2019-04-10T03:43:26.064Z,0.65
2019-04-10T03:45:52.953Z,0.64
2019-04-10T03:48:20.090Z,0.64
2019-04-10T03:50:46.275Z,0.67
2019-04-10T03:53:12.377Z,0.68
2019-04-10T03:55:38.558Z,0.64
2019-04-10T03:58:04.692Z,0.65
2019-04-10T04:00:31.019Z,0.66
2019-04-10T04:02:57.241Z,0.71
2019-04-10T04:05:23.458Z,0.78
2019-04-10T04:07:51.441Z,0.83
2019-04-10T04:10:18.315Z,0.82
2019-04-10T04:12:44.669Z,0.77
2019-04-10T04:15:11.381Z,0.76
2019-04-10T04:17:37.981Z,0.76
2019-04-10T04:20:04.447Z,0.81
2019-04-10T04:22:30.617Z,0.84
2019-04-10T04:24:56.771Z,0.86
2019-04-10T04:27:22.885Z,0.86
2019-04-10T04:29:49.870Z,0.87
2019-04-10T04:32:16.027Z,0.90
2019-04-10T04:34:43.254Z,0.94
2019-04-10T04:37:10.005Z,0.96
2019-04-10T04:39:37.249Z,1.01
2019-04-10T04:42:03.607Z,1.05
2019-04-10T04:44:29.804Z,1.12
2019-04-10T04:46:57.003Z,1.18
2019-04-10T04:49:24.237Z,1.18
2019-04-10T04:51:50.828Z,1.19
2019-04-10T04:54:17.146Z,1.24
2019-04-10T04:56:44.164Z,1.31
2019-04-10T04:59:10.475Z,1.38
2019-04-10T05:01:36.543Z,1.50
2019-04-10T05:04:02.734Z,1.59
2019-04-10T05:06:30.874Z,1.64
2019-04-10T05:08:59.170Z,1.69
2019-04-10T05:11:25.340Z,1.73
2019-04-10T05:13:51.550Z,1.73
2019-04-10T05:16:18.557Z,1.78
2019-04-10T05:18:45.674Z,1.79
2019-04-10T05:21:12.703Z,1.76
2019-04-10T05:23:38.871Z,1.73
2019-04-10T05:26:06.004Z,1.77
2019-04-10T05:28:32.754Z,1.82
2019-04-10T05:30:59.000Z,1.87
2019-04-10T05:33:25.173Z,1.92
2019-04-10T05:35:51.233Z,1.97
2019-04-10T05:38:17.395Z,2.04
2019-04-10T05:40:44.246Z,2.14
2019-04-10T05:43:11.413Z,2.23
2019-04-10T05:45:38.008Z,2.30
2019-04-10T05:48:04.175Z,2.37
2019-04-10T05:50:30.291Z,2.45
2019-04-10T05:52:56.433Z,2.53
2019-04-10T05:55:22.658Z,2.61
2019-04-10T05:57:49.017Z,2.67
2019-04-10T06:00:16.724Z,2.72
2019-04-10T06:02:43.806Z,2.79
2019-04-10T06:05:10.134Z,2.83
2019-04-10T06:07:37.132Z,2.90
2019-04-10T06:10:08.493Z,2.94
2019-04-10T06:12:33.840Z,2.98
2019-04-10T06:15:00.236Z,3.02
2019-04-10T06:17:26.847Z,3.07
2019-04-10T06:19:53.188Z,3.14
2019-04-10T06:22:19.341Z,3.18
2019-04-10T06:24:46.654Z,3.27
2019-04-10T06:27:12.914Z,3.32
2019-04-10T06:29:39.384Z,3.35
2019-04-10T06:32:05.603Z,3.38
2019-04-10T06:34:32.235Z,3.44
2019-04-10T06:36:58.481Z,3.51
2019-04-10T06:39:24.855Z,3.59
2019-04-10T06:41:51.013Z,3.67
2019-04-10T06:44:17.579Z,3.72
2019-04-10T06:46:44.468Z,3.80
2019-04-10T06:49:10.772Z,3.90
2019-04-10T06:51:37.548Z,4.02
2019-04-10T06:54:08.089Z,4.10
2019-04-10T06:56:31.922Z,4.16
2019-04-10T06:59:00.263Z,4.25
2019-04-10T07:01:39.027Z,4.32
2019-04-10T07:04:02.043Z,4.40
2019-04-10T07:06:26.699Z,4.51
2019-04-10T07:08:53.240Z,4.62
2019-04-10T07:11:20.211Z,4.72
2019-04-10T07:13:46.183Z,4.76
2019-04-10T07:16:12.805Z,4.81
2019-04-10T07:20:15.477Z,5.02
2019-04-10T07:22:46.529Z,5.10
2019-04-10T07:25:15.373Z,5.22
2019-04-10T07:27:44.483Z,5.32
2019-04-10T07:30:13.962Z,5.43
2019-04-10T07:34:26.377Z,5.60
2019-04-10T07:36:51.949Z,5.68
2019-04-10T07:39:18.387Z,5.76
2019-04-10T07:41:45.241Z,5.83
2019-04-10T07:44:12.124Z,5.91
2019-04-10T07:46:38.310Z,5.95
2019-04-10T07:49:04.451Z,6.03
2019-04-10T07:51:30.533Z,6.16
2019-04-10T07:53:57.682Z,6.26
2019-04-10T07:56:24.598Z,6.24
2019-04-10T07:58:51.668Z,6.33
2019-04-10T08:01:18.289Z,6.35
2019-04-10T08:03:44.505Z,6.41
2019-04-10T08:06:11.096Z,6.41
2019-04-10T08:08:38.269Z,6.41
2019-04-10T08:11:05.070Z,6.42
2019-04-10T08:13:31.428Z,6.58
2019-04-10T08:15:58.465Z,6.68
2019-04-10T08:18:25.450Z,6.78
2019-04-10T08:20:51.804Z,6.88
2019-04-10T08:23:18.193Z,6.97
2019-04-10T08:25:44.332Z,7.11
2019-04-10T08:28:11.438Z,7.17
2019-04-10T08:30:37.757Z,7.29
2019-04-10T08:33:04.828Z,7.43
2019-04-10T08:35:32.005Z,7.61
2019-04-10T08:37:59.240Z,7.67
2019-04-10T08:40:25.694Z,7.56
2019-04-10T08:42:51.972Z,7.45
2019-04-10T08:45:18.920Z,7.47
2019-04-10T08:47:45.276Z,7.73
2019-04-10T08:50:11.894Z,7.92
2019-04-10T08:52:39.082Z,7.96
2019-04-10T08:55:05.986Z,7.95
2019-04-10T08:57:32.295Z,7.84
2019-04-10T08:59:58.447Z,7.84
2019-04-10T09:02:24.547Z,7.84
2019-04-10T09:04:50.764Z,7.81
2019-04-10T09:07:16.993Z,7.88
2019-04-10T09:09:43.222Z,7.97
2019-04-10T09:12:09.451Z,8.01
2019-04-10T09:14:35.729Z,8.15
2019-04-10T09:17:02.843Z,8.28
2019-04-10T09:19:29.966Z,8.45
2019-04-10T09:21:57.437Z,8.58
2019-04-10T09:24:23.788Z,8.59
2019-04-10T09:26:50.834Z,8.59
2019-04-10T09:29:18.098Z,8.57
2019-04-10T09:31:44.216Z,8.62
2019-04-10T09:34:11.669Z,8.55
2019-04-10T09:36:38.110Z,8.42
2019-04-10T09:39:05.816Z,8.48
2019-04-10T09:41:32.133Z,8.67
2019-04-10T09:43:58.350Z,8.65
2019-04-10T09:46:24.741Z,8.55
2019-04-10T09:48:51.707Z,8.52
2019-04-10T09:51:19.563Z,8.58
2019-04-10T09:53:45.828Z,8.65
2019-04-10T09:57:46.088Z,8.62
2019-04-10T10:00:13.834Z,8.54
2019-04-10T10:02:41.829Z,8.56
2019-04-10T10:05:08.466Z,8.61
2019-04-10T10:07:34.841Z,8.79
2019-04-10T10:10:01.558Z,8.98
2019-04-10T10:12:28.049Z,9.13
2019-04-10T10:14:54.286Z,9.33
2019-04-10T10:17:20.669Z,9.56
2019-04-10T10:19:48.073Z,9.76
2019-04-10T10:22:14.727Z,9.59
2019-04-10T10:24:40.890Z,9.63
2019-04-10T10:27:07.418Z,10.29
2019-04-10T10:29:33.683Z,10.50
2019-04-10T10:32:00.362Z,10.49
2019-04-10T10:34:26.660Z,10.37
2019-04-10T10:36:53.296Z,10.60
2019-04-10T10:39:19.641Z,10.93
2019-04-10T10:41:48.885Z,11.09
2019-04-10T10:44:17.240Z,11.01
2019-04-10T10:46:43.978Z,10.97
2019-04-10T10:49:10.493Z,10.99
2019-04-10T10:51:37.099Z,11.13
2019-04-10T10:54:04.592Z,11.16
2019-04-10T10:56:31.264Z,11.11
2019-04-10T10:58:58.839Z,13.34
2019-04-10T11:01:25.156Z,13.17
2019-04-10T11:03:51.367Z,13.74
2019-04-10T11:06:17.854Z,15.15
2019-04-10T11:08:44.229Z,15.17
2019-04-10T11:11:10.358Z,16.08
2019-04-10T11:13:37.136Z,16.65
2019-04-10T11:16:05.628Z,17.23
2019-04-10T11:18:32.650Z,17.08
2019-04-10T11:21:04.146Z,15.97
2019-04-10T11:23:28.337Z,15.18
2019-04-10T11:25:55.887Z,14.45
2019-04-10T11:28:28.648Z,14.31
2019-04-10T11:30:50.950Z,15.87
2019-04-10T11:33:17.883Z,16.60
2019-04-10T11:35:45.888Z,16.93
2019-04-10T11:38:13.456Z,17.27
2019-04-10T11:40:41.409Z,16.52
2019-04-10T11:43:07.770Z,17.22
2019-04-10T11:48:03.601Z,17.33
2019-04-10T11:50:32.152Z,18.98
2019-04-10T11:53:02.110Z,19.80
2019-04-10T11:55:28.281Z,18.47
2019-04-10T11:57:59.350Z,17.70
2019-04-10T12:03:10.311Z,21.10
2019-04-10T12:05:38.641Z,19.83
2019-04-10T12:08:32.353Z,21.56
2019-04-10T12:13:01.993Z,23.06
2019-04-10T12:15:28.221Z,23.89
2019-04-10T12:17:54.478Z,24.25
2019-04-10T12:20:20.911Z,24.13
2019-04-10T12:22:48.591Z,24.70
2019-04-10T12:25:14.906Z,25.34
2019-04-10T12:27:41.215Z,25.66
2019-04-10T12:30:11.143Z,23.79
2019-04-10T12:32:37.564Z,23.19
2019-04-10T12:35:04.754Z,23.67
2019-04-10T12:37:31.023Z,24.06
2019-04-10T12:39:57.237Z,24.46
2019-04-10T12:42:23.928Z,24.89
2019-04-10T12:44:51.367Z,25.49
2019-04-10T12:47:17.644Z,26.04
2019-04-10T12:49:43.767Z,26.52
2019-04-10T12:52:10.197Z,26.88
2019-04-10T12:54:36.293Z,27.26
2019-04-10T12:57:02.635Z,27.76
2019-04-10T12:59:28.795Z,28.12
2019-04-10T13:01:55.490Z,28.33
2019-04-10T13:04:22.354Z,28.39
2019-04-10T13:06:52.283Z,28.11
2019-04-10T13:09:17.937Z,28.47
2019-04-10T13:11:44.871Z,28.54
2019-04-10T13:14:11.029Z,28.16
2019-04-10T13:16:38.338Z,28.29
2019-04-10T13:19:04.878Z,28.64
2019-04-10T13:21:31.132Z,28.47
2019-04-10T13:23:57.301Z,28.32
2019-04-10T13:26:23.930Z,28.78
2019-04-10T13:28:50.022Z,29.33
2019-04-10T13:31:17.111Z,29.62
2019-04-10T13:33:44.715Z,29.85
2019-04-10T13:36:11.366Z,29.68
2019-04-10T13:38:38.353Z,29.52
2019-04-10T13:41:04.741Z,29.37
2019-04-10T13:43:30.797Z,28.92
2019-04-10T13:45:56.978Z,28.81
2019-04-10T13:48:23.157Z,28.64
2019-04-10T13:50:49.233Z,28.85
2019-04-10T13:53:15.637Z,29.02
2019-04-10T13:55:42.267Z,29.04
2019-04-10T13:58:08.822Z,28.91
2019-04-10T14:00:40.554Z,28.39
2019-04-10T14:03:07.264Z,28.42
2019-04-10T14:05:34.070Z,28.57
2019-04-10T14:09:34.884Z,27.95
2019-04-10T14:11:51.469Z,27.16
2019-04-10T14:14:18.289Z,26.70
2019-04-10T14:16:46.836Z,26.45
2019-04-10T14:19:15.127Z,25.52
2019-04-10T14:21:41.367Z,25.20
2019-04-10T14:24:07.784Z,24.90
2019-04-10T14:26:45.901Z,24.85
2019-04-10T14:29:09.396Z,24.56
2019-04-10T14:31:37.691Z,24.26
2019-04-10T14:34:05.014Z,23.89
2019-04-10T14:36:31.903Z,23.73
2019-04-10T14:39:08.683Z,23.72
2019-04-10T14:41:27.525Z,23.23
2019-04-10T14:43:55.606Z,22.75
2019-04-10T14:46:21.980Z,22.02
2019-04-10T14:48:48.869Z,21.42
2019-04-10T14:51:16.494Z,21.26
2019-04-10T14:53:43.615Z,21.78
2019-04-10T14:56:10.469Z,22.47
2019-04-10T14:58:36.992Z,22.15
2019-04-10T15:01:06.969Z,22.07
2019-04-10T15:03:32.869Z,22.08
2019-04-10T15:06:01.063Z,21.82
2019-04-10T15:08:27.976Z,22.06
2019-04-10T15:10:54.418Z,22.05
2019-04-10T15:13:22.707Z,21.76
2019-04-10T15:15:50.287Z,20.81
2019-04-10T15:18:16.712Z,19.95
2019-04-10T15:20:42.785Z,19.61
2019-04-10T15:23:09.797Z,19.43
2019-04-10T15:25:36.121Z,19.24
2019-04-10T15:28:02.587Z,18.35
2019-04-10T15:30:28.812Z,17.48
2019-04-10T15:32:56.101Z,16.79
2019-04-10T15:35:22.316Z,16.20
2019-04-10T15:37:49.274Z,15.80
2019-04-10T15:40:20.932Z,15.50
2019-04-10T15:42:44.054Z,15.25
2019-04-10T15:45:10.658Z,14.99
2019-04-10T15:47:37.449Z,14.70
2019-04-10T15:50:06.920Z,14.43
2019-04-10T15:52:33.419Z,14.16
2019-04-10T15:54:59.698Z,13.91
2019-04-10T15:57:26.917Z,13.62
2019-04-10T15:59:53.248Z,13.30
2019-04-10T16:02:19.691Z,13.03
2019-04-10T16:04:46.006Z,12.90
2019-04-10T16:07:12.545Z,12.72
2019-04-10T16:09:47.639Z,12.59
2019-04-10T16:12:16.476Z,12.40
2019-04-10T16:14:42.891Z,12.12
2019-04-10T16:17:29.599Z,11.95
2019-04-10T16:20:15.464Z,11.74
2019-04-10T16:22:44.740Z,11.45
2019-04-10T16:25:13.706Z,11.23
2019-04-10T16:27:41.138Z,11.10
2019-04-10T16:30:10.264Z,10.96
2019-04-10T16:32:37.021Z,10.92
2019-04-10T16:35:05.221Z,10.88
2019-04-10T16:37:31.707Z,10.83
2019-04-10T16:40:04.064Z,10.79
2019-04-10T16:42:27.110Z,10.70
2019-04-10T16:44:53.437Z,10.63
2019-04-10T16:47:19.742Z,10.52
2019-04-10T16:49:50.241Z,10.34
2019-04-10T16:52:16.810Z,10.23
2019-04-10T16:54:43.050Z,10.04
2019-04-10T16:57:10.046Z,9.92
2019-04-10T16:59:37.489Z,9.82
2019-04-10T17:02:56.940Z,9.73
2019-04-10T17:04:43.701Z,9.64
2019-04-10T17:07:10.612Z,9.52
2019-04-10T17:09:37.051Z,9.34
2019-04-10T17:12:03.999Z,9.19
2019-04-10T17:14:31.407Z,9.01
2019-04-10T17:16:57.853Z,8.88
2019-04-10T17:19:24.207Z,8.75
2019-04-10T17:21:52.121Z,8.63
2019-04-10T17:24:18.590Z,8.48
2019-04-10T17:26:46.729Z,8.36
2019-04-10T17:29:13.066Z,8.33
2019-04-10T17:31:40.404Z,8.31
2019-04-10T17:34:06.551Z,8.24
2019-04-10T17:36:32.887Z,8.18
2019-04-10T17:39:00.469Z,8.07
2019-04-10T17:41:33.309Z,7.97
2019-04-10T17:44:02.934Z,7.88
2019-04-10T17:46:31.298Z,7.79
2019-04-10T17:49:03.195Z,7.67
2019-04-10T17:51:28.429Z,7.58
2019-04-10T17:53:57.946Z,7.47
2019-04-10T17:56:32.804Z,7.34
2019-04-10T17:59:08.115Z,7.27
2019-04-10T18:02:05.733Z,7.18
2019-04-10T18:04:36.665Z,7.10
2019-04-10T18:07:32.261Z,7.00
2019-04-10T18:10:00.421Z,6.90
2019-04-10T18:12:27.991Z,6.79
2019-04-10T18:14:55.744Z,6.64
2019-04-10T18:17:26.941Z,6.52
2019-04-10T18:21:20.283Z,6.43
2019-04-10T18:23:04.296Z,6.33
2019-04-10T18:25:31.908Z,6.22
2019-04-10T18:27:58.249Z,6.11
2019-04-10T18:30:24.528Z,6.05
2019-04-10T18:32:50.780Z,5.98
2019-04-10T18:35:19.051Z,5.92
2019-04-10T18:37:47.804Z,5.83
2019-04-10T18:40:14.820Z,5.66
2019-04-10T18:42:41.259Z,5.55
2019-04-10T18:45:09.678Z,5.47
2019-04-10T18:47:39.264Z,5.44
2019-04-10T18:50:08.254Z,5.40
2019-04-10T18:52:42.101Z,5.36
2019-04-10T18:55:14.408Z,5.34
2019-04-10T18:57:43.106Z,5.31
2019-04-10T19:00:27.186Z,5.24
2019-04-10T19:03:01.295Z,5.19
2019-04-10T19:05:30.309Z,5.08
2019-04-10T19:07:56.789Z,4.95
2019-04-10T19:10:23.089Z,4.92
2019-04-10T19:12:49.334Z,4.83
2019-04-10T19:15:15.446Z,4.71
2019-04-10T19:17:42.004Z,4.63
2019-04-10T19:20:10.955Z,4.59
2019-04-10T19:22:37.366Z,4.57
2019-04-10T19:25:05.952Z,4.50
2019-04-10T19:27:36.438Z,4.46
2019-04-10T19:30:07.982Z,4.36
2019-04-10T19:32:35.772Z,4.27
2019-04-10T19:35:10.857Z,4.22
2019-04-10T19:37:36.804Z,4.17
2019-04-10T19:40:08.967Z,4.11
2019-04-10T19:42:35.657Z,4.00
2019-04-10T19:45:03.740Z,3.93
2019-04-10T19:47:30.519Z,3.87
2019-04-10T19:49:57.785Z,3.81
2019-04-10T19:52:32.827Z,3.82
2019-04-10T19:54:55.187Z,3.80
2019-04-10T19:57:22.272Z,3.75
2019-04-10T19:59:50.221Z,3.71
2019-04-10T20:02:17.040Z,3.68
2019-04-10T20:04:48.428Z,3.62
2019-04-10T20:07:14.836Z,3.54
2019-04-10T20:09:41.949Z,3.48
2019-04-10T20:12:08.568Z,3.46
2019-04-10T20:14:34.958Z,3.38
2019-04-10T20:17:08.048Z,3.35
2019-04-10T20:19:30.733Z,3.33
2019-04-10T20:22:00.593Z,3.29
2019-04-10T20:24:29.782Z,3.24
2019-04-10T20:26:56.051Z,3.21
2019-04-10T20:29:23.632Z,3.20
2019-04-10T20:31:51.344Z,3.16
2019-04-10T20:34:21.041Z,3.08
2019-04-10T20:36:49.009Z,3.05
2019-04-10T20:39:15.452Z,2.99
2019-04-10T20:41:49.843Z,2.97
2019-04-10T20:44:14.389Z,2.90
2019-04-10T20:46:42.401Z,2.88
2019-04-10T20:49:08.604Z,2.86
2019-04-10T20:51:39.807Z,2.80
2019-04-10T20:54:06.605Z,2.78
2019-04-10T20:56:36.938Z,2.77
2019-04-10T20:59:03.488Z,2.77
2019-04-10T21:01:30.991Z,2.70
2019-04-10T21:04:00.773Z,2.68
2019-04-10T21:06:27.057Z,2.70
2019-04-10T21:08:54.386Z,2.68
2019-04-10T21:11:20.799Z,2.68
2019-04-10T21:13:49.082Z,2.65
2019-04-10T21:16:15.592Z,2.64
2019-04-10T21:18:41.929Z,2.61
2019-04-10T21:21:08.234Z,2.59
2019-04-10T21:23:34.307Z,2.58
2019-04-10T21:26:00.532Z,2.55
2019-04-10T21:28:26.642Z,2.52
2019-04-10T21:30:56.634Z,2.50
2019-04-10T21:33:28.042Z,2.48
2019-04-10T21:35:54.282Z,2.45
2019-04-10T21:38:21.444Z,2.43
2019-04-10T21:40:49.955Z,2.37
2019-04-10T21:43:20.276Z,2.37
2019-04-10T21:45:49.697Z,2.37
2019-04-10T21:48:16.797Z,2.34
2019-04-10T21:50:43.950Z,2.30
2019-04-10T21:53:14.827Z,2.27
2019-04-10T21:55:39.513Z,2.21
2019-04-10T21:58:06.059Z,2.17
2019-04-10T22:00:34.619Z,2.13
2019-04-10T22:03:05.134Z,2.07
2019-04-10T22:05:34.622Z,2.02
2019-04-10T22:08:03.142Z,2.01
2019-04-10T22:10:40.098Z,1.97
2019-04-10T22:13:09.562Z,1.93
2019-04-10T22:15:41.465Z,1.90
2019-04-10T22:18:09.768Z,1.83
2019-04-10T22:20:37.591Z,1.79
2019-04-10T22:23:05.835Z,1.73
2019-04-10T22:25:33.944Z,1.68
2019-04-10T22:28:00.603Z,1.63
2019-04-10T22:30:27.222Z,1.58
2019-04-10T22:32:53.550Z,1.54
2019-04-10T22:35:24.246Z,1.44
2019-04-10T22:37:52.875Z,1.44
2019-04-10T22:40:19.431Z,1.43
2019-04-10T22:42:53.259Z,1.42
2019-04-10T22:45:25.672Z,1.35
2019-04-10T22:47:56.301Z,1.28
2019-04-10T22:50:27.395Z,1.25
2019-04-10T22:52:54.955Z,1.15
2019-04-10T22:55:23.838Z,1.15
2019-04-10T22:57:54.513Z,1.11
2019-04-10T23:00:22.409Z,1.10
2019-04-10T23:02:50.655Z,1.09
2019-04-10T23:05:16.888Z,1.05
2019-04-10T23:07:43.144Z,1.00
2019-04-10T23:10:12.877Z,0.97
2019-04-10T23:12:52.291Z,0.93
2019-04-10T23:15:23.061Z,0.88
2019-04-10T23:17:47.095Z,0.85
2019-04-10T23:20:16.507Z,0.82
2019-04-10T23:22:45.168Z,0.79
2019-04-10T23:25:11.937Z,0.75
2019-04-10T23:27:40.036Z,0.70
2019-04-10T23:30:09.249Z,0.69
2019-04-10T23:32:37.523Z,0.68
2019-04-10T23:35:05.759Z,0.66
2019-04-10T23:37:33.746Z,0.61
2019-04-10T23:40:00.738Z,0.58
2019-04-10T23:42:28.241Z,0.53
2019-04-10T23:44:55.377Z,0.51
2019-04-10T23:47:22.174Z,0.40
2019-04-10T23:49:48.554Z,0.34
2019-04-10T23:52:19.951Z,0.30
2019-04-10T23:54:57.549Z,0.30
2019-04-10T23:57:23.843Z,0.27
2019-04-10T23:59:51.104Z,0.21
